sensor_id;sensor_type;location;lat;lon;timestamp;P1;durP1;ratioP1;P2;durP2;ratioP2
5363;SDS011;2705;41.410;2.160;2023-05-10T00:01:09;2.90;;;1.83;;
5363;SDS011;2705;41.410;2.160;2023-05-10T00:03:39;5.33;;;2.37;;
5363;SDS011;2705;41.410;2.160;2023-05-10T00:06:08;3.00;;;1.80;;
5363;SDS011;2705;41.410;2.160;2023-05-10T00:08:37;4.60;;;1.97;;
5363;SDS011;2705;41.410;2.160;2023-05-10T00:11:06;3.63;;;2.00;;
5363;SDS011;2705;41.410;2.160;2023-05-10T00:13:35;4.40;;;1.97;;
5363;SDS011;2705;41.410;2.160;2023-05-10T00:16:05;4.40;;;1.57;;
5363;SDS011;2705;41.410;2.160;2023-05-10T00:18:34;9.57;;;2.23;;
5363;SDS011;2705;41.410;2.160;2023-05-10T00:21:05;13.10;;;9.83;;
5363;SDS011;2705;41.410;2.160;2023-05-10T00:23:34;5.20;;;1.60;;
5363;SDS011;2705;41.410;2.160;2023-05-10T00:26:04;5.03;;;1.97;;
5363;SDS011;2705;41.410;2.160;2023-05-10T00:28:33;5.83;;;2.10;;
5363;SDS011;2705;41.410;2.160;2023-05-10T00:31:02;5.17;;;2.00;;
5363;SDS011;2705;41.410;2.160;2023-05-10T00:33:31;4.87;;;2.10;;
5363;SDS011;2705;41.410;2.160;2023-05-10T00:36:00;1.90;;;1.70;;
5363;SDS011;2705;41.410;2.160;2023-05-10T00:38:30;6.50;;;1.97;;
5363;SDS011;2705;41.410;2.160;2023-05-10T00:40:59;4.40;;;1.80;;
5363;SDS011;2705;41.410;2.160;2023-05-10T00:43:31;5.27;;;2.23;;
5363;SDS011;2705;41.410;2.160;2023-05-10T00:46:00;6.20;;;2.27;;
5363;SDS011;2705;41.410;2.160;2023-05-10T00:48:29;3.80;;;2.10;;
5363;SDS011;2705;41.410;2.160;2023-05-10T00:50:59;5.87;;;2.03;;
5363;SDS011;2705;41.410;2.160;2023-05-10T00:53:32;4.93;;;2.20;;
5363;SDS011;2705;41.410;2.160;2023-05-10T00:56:03;1.83;;;1.60;;
5363;SDS011;2705;41.410;2.160;2023-05-10T00:58:33;5.70;;;2.67;;
5363;SDS011;2705;41.410;2.160;2023-05-10T01:01:02;6.57;;;2.30;;
5363;SDS011;2705;41.410;2.160;2023-05-10T01:03:32;4.27;;;2.73;;
5363;SDS011;2705;41.410;2.160;2023-05-10T01:06:02;4.50;;;2.40;;
5363;SDS011;2705;41.410;2.160;2023-05-10T01:08:33;3.63;;;2.30;;
5363;SDS011;2705;41.410;2.160;2023-05-10T01:11:02;5.90;;;2.60;;
5363;SDS011;2705;41.410;2.160;2023-05-10T01:13:31;3.70;;;2.00;;
5363;SDS011;2705;41.410;2.160;2023-05-10T01:16:03;3.17;;;2.30;;
5363;SDS011;2705;41.410;2.160;2023-05-10T01:18:34;6.03;;;3.00;;
5363;SDS011;2705;41.410;2.160;2023-05-10T01:21:09;4.50;;;2.70;;
5363;SDS011;2705;41.410;2.160;2023-05-10T01:23:50;8.40;;;3.43;;
5363;SDS011;2705;41.410;2.160;2023-05-10T01:26:46;7.50;;;3.13;;
5363;SDS011;2705;41.410;2.160;2023-05-10T01:32:45;5.77;;;2.60;;
5363;SDS011;2705;41.410;2.160;2023-05-10T01:35:28;4.90;;;2.40;;
5363;SDS011;2705;41.410;2.160;2023-05-10T01:38:04;8.87;;;3.07;;
5363;SDS011;2705;41.410;2.160;2023-05-10T01:40:42;6.10;;;2.90;;
5363;SDS011;2705;41.410;2.160;2023-05-10T01:43:17;6.23;;;3.23;;
5363;SDS011;2705;41.410;2.160;2023-05-10T01:45:54;8.63;;;2.90;;
5363;SDS011;2705;41.410;2.160;2023-05-10T01:48:32;3.70;;;2.40;;
5363;SDS011;2705;41.410;2.160;2023-05-10T01:51:02;4.10;;;2.30;;
5363;SDS011;2705;41.410;2.160;2023-05-10T01:53:33;3.50;;;2.07;;
5363;SDS011;2705;41.410;2.160;2023-05-10T01:56:06;8.97;;;2.03;;
5363;SDS011;2705;41.410;2.160;2023-05-10T01:58:37;4.67;;;2.43;;
5363;SDS011;2705;41.410;2.160;2023-05-10T02:01:11;3.67;;;1.97;;
5363;SDS011;2705;41.410;2.160;2023-05-10T02:04:07;2.60;;;1.93;;
5363;SDS011;2705;41.410;2.160;2023-05-10T02:06:38;4.30;;;2.33;;
5363;SDS011;2705;41.410;2.160;2023-05-10T02:09:08;5.80;;;2.00;;
5363;SDS011;2705;41.410;2.160;2023-05-10T02:11:39;6.60;;;1.87;;
5363;SDS011;2705;41.410;2.160;2023-05-10T02:14:09;3.27;;;2.20;;
5363;SDS011;2705;41.410;2.160;2023-05-10T02:16:39;7.97;;;2.50;;
5363;SDS011;2705;41.410;2.160;2023-05-10T02:19:10;2.60;;;2.30;;
5363;SDS011;2705;41.410;2.160;2023-05-10T02:21:42;3.63;;;2.33;;
5363;SDS011;2705;41.410;2.160;2023-05-10T02:24:12;6.67;;;2.30;;
5363;SDS011;2705;41.410;2.160;2023-05-10T02:26:44;4.73;;;2.60;;
5363;SDS011;2705;41.410;2.160;2023-05-10T02:29:15;4.90;;;1.90;;
5363;SDS011;2705;41.410;2.160;2023-05-10T02:31:44;5.83;;;2.50;;
5363;SDS011;2705;41.410;2.160;2023-05-10T02:34:16;4.10;;;2.10;;
5363;SDS011;2705;41.410;2.160;2023-05-10T02:36:45;5.20;;;2.20;;
5363;SDS011;2705;41.410;2.160;2023-05-10T02:39:15;4.33;;;2.57;;
5363;SDS011;2705;41.410;2.160;2023-05-10T02:41:45;6.30;;;2.53;;
5363;SDS011;2705;41.410;2.160;2023-05-10T02:44:17;6.07;;;2.47;;
5363;SDS011;2705;41.410;2.160;2023-05-10T02:46:47;4.63;;;2.90;;
5363;SDS011;2705;41.410;2.160;2023-05-10T02:49:18;7.13;;;2.30;;
5363;SDS011;2705;41.410;2.160;2023-05-10T02:51:50;3.77;;;2.17;;
5363;SDS011;2705;41.410;2.160;2023-05-10T02:54:24;4.67;;;2.50;;
5363;SDS011;2705;41.410;2.160;2023-05-10T02:56:58;2.80;;;2.00;;
5363;SDS011;2705;41.410;2.160;2023-05-10T02:59:28;4.97;;;2.20;;
5363;SDS011;2705;41.410;2.160;2023-05-10T03:01:58;4.60;;;1.93;;
5363;SDS011;2705;41.410;2.160;2023-05-10T03:04:30;5.33;;;1.67;;
5363;SDS011;2705;41.410;2.160;2023-05-10T03:06:59;5.70;;;1.77;;
5363;SDS011;2705;41.410;2.160;2023-05-10T03:09:28;6.90;;;2.43;;
5363;SDS011;2705;41.410;2.160;2023-05-10T03:12:00;4.03;;;2.30;;
5363;SDS011;2705;41.410;2.160;2023-05-10T03:14:40;7.80;;;2.80;;
5363;SDS011;2705;41.410;2.160;2023-05-10T03:17:15;9.03;;;4.47;;
5363;SDS011;2705;41.410;2.160;2023-05-10T03:19:53;8.63;;;4.20;;
5363;SDS011;2705;41.410;2.160;2023-05-10T03:22:25;7.87;;;3.83;;
5363;SDS011;2705;41.410;2.160;2023-05-10T03:25:06;14.00;;;4.97;;
5363;SDS011;2705;41.410;2.160;2023-05-10T03:27:40;11.73;;;5.50;;
5363;SDS011;2705;41.410;2.160;2023-05-10T03:30:12;9.23;;;5.03;;
5363;SDS011;2705;41.410;2.160;2023-05-10T03:32:41;9.13;;;4.83;;
5363;SDS011;2705;41.410;2.160;2023-05-10T03:35:13;12.70;;;5.00;;
5363;SDS011;2705;41.410;2.160;2023-05-10T03:37:43;7.43;;;4.20;;
5363;SDS011;2705;41.410;2.160;2023-05-10T03:40:13;6.47;;;3.43;;
5363;SDS011;2705;41.410;2.160;2023-05-10T03:42:43;6.20;;;3.70;;
5363;SDS011;2705;41.410;2.160;2023-05-10T03:45:12;5.20;;;4.00;;
5363;SDS011;2705;41.410;2.160;2023-05-10T03:47:41;4.30;;;2.43;;
5363;SDS011;2705;41.410;2.160;2023-05-10T03:50:10;5.13;;;2.77;;
5363;SDS011;2705;41.410;2.160;2023-05-10T03:52:42;6.87;;;2.67;;
5363;SDS011;2705;41.410;2.160;2023-05-10T03:55:11;2.93;;;1.93;;
5363;SDS011;2705;41.410;2.160;2023-05-10T03:57:40;7.27;;;3.03;;
5363;SDS011;2705;41.410;2.160;2023-05-10T04:00:10;5.83;;;2.47;;
5363;SDS011;2705;41.410;2.160;2023-05-10T04:02:42;4.00;;;2.07;;
5363;SDS011;2705;41.410;2.160;2023-05-10T04:05:17;4.17;;;2.07;;
5363;SDS011;2705;41.410;2.160;2023-05-10T04:07:48;4.33;;;2.20;;
5363;SDS011;2705;41.410;2.160;2023-05-10T04:10:18;6.33;;;2.47;;
5363;SDS011;2705;41.410;2.160;2023-05-10T04:12:47;7.37;;;2.30;;
5363;SDS011;2705;41.410;2.160;2023-05-10T04:15:17;3.07;;;1.70;;
5363;SDS011;2705;41.410;2.160;2023-05-10T04:17:46;7.77;;;2.10;;
5363;SDS011;2705;41.410;2.160;2023-05-10T04:20:16;3.20;;;2.17;;
5363;SDS011;2705;41.410;2.160;2023-05-10T04:22:45;3.73;;;1.80;;
5363;SDS011;2705;41.410;2.160;2023-05-10T04:25:16;4.80;;;1.80;;
5363;SDS011;2705;41.410;2.160;2023-05-10T04:27:45;3.83;;;1.67;;
5363;SDS011;2705;41.410;2.160;2023-05-10T04:30:14;3.17;;;1.57;;
5363;SDS011;2705;41.410;2.160;2023-05-10T04:32:43;2.47;;;1.90;;
5363;SDS011;2705;41.410;2.160;2023-05-10T04:35:12;3.30;;;1.60;;
5363;SDS011;2705;41.410;2.160;2023-05-10T04:37:41;5.43;;;1.67;;
5363;SDS011;2705;41.410;2.160;2023-05-10T04:40:10;3.67;;;1.93;;
5363;SDS011;2705;41.410;2.160;2023-05-10T04:42:42;5.00;;;1.80;;
5363;SDS011;2705;41.410;2.160;2023-05-10T04:45:12;3.33;;;1.70;;
5363;SDS011;2705;41.410;2.160;2023-05-10T04:47:41;5.30;;;1.70;;
5363;SDS011;2705;41.410;2.160;2023-05-10T04:50:10;3.77;;;1.60;;
5363;SDS011;2705;41.410;2.160;2023-05-10T04:52:39;3.33;;;1.80;;
5363;SDS011;2705;41.410;2.160;2023-05-10T04:55:08;2.40;;;1.80;;
5363;SDS011;2705;41.410;2.160;2023-05-10T04:57:37;3.47;;;1.73;;
5363;SDS011;2705;41.410;2.160;2023-05-10T05:00:09;1.93;;;1.47;;
5363;SDS011;2705;41.410;2.160;2023-05-10T05:02:41;2.67;;;1.40;;
5363;SDS011;2705;41.410;2.160;2023-05-10T05:05:12;7.03;;;2.00;;
5363;SDS011;2705;41.410;2.160;2023-05-10T05:07:41;8.83;;;2.27;;
5363;SDS011;2705;41.410;2.160;2023-05-10T05:10:10;4.87;;;2.20;;
5363;SDS011;2705;41.410;2.160;2023-05-10T05:12:39;13.10;;;2.20;;
5363;SDS011;2705;41.410;2.160;2023-05-10T05:15:10;5.73;;;1.83;;
5363;SDS011;2705;41.410;2.160;2023-05-10T05:17:40;8.27;;;1.70;;
5363;SDS011;2705;41.410;2.160;2023-05-10T05:20:09;12.13;;;2.13;;
5363;SDS011;2705;41.410;2.160;2023-05-10T05:22:39;8.07;;;2.00;;
5363;SDS011;2705;41.410;2.160;2023-05-10T05:25:08;4.17;;;2.40;;
5363;SDS011;2705;41.410;2.160;2023-05-10T05:27:38;6.30;;;2.30;;
5363;SDS011;2705;41.410;2.160;2023-05-10T05:30:08;7.30;;;2.00;;
5363;SDS011;2705;41.410;2.160;2023-05-10T05:32:40;6.13;;;1.93;;
5363;SDS011;2705;41.410;2.160;2023-05-10T05:35:09;2.20;;;1.50;;
5363;SDS011;2705;41.410;2.160;2023-05-10T05:37:39;6.27;;;1.80;;
5363;SDS011;2705;41.410;2.160;2023-05-10T05:40:08;6.60;;;2.30;;
5363;SDS011;2705;41.410;2.160;2023-05-10T05:42:41;10.33;;;2.50;;
5363;SDS011;2705;41.410;2.160;2023-05-10T05:45:11;9.97;;;2.03;;
5363;SDS011;2705;41.410;2.160;2023-05-10T05:47:41;8.20;;;2.50;;
5363;SDS011;2705;41.410;2.160;2023-05-10T05:50:10;4.93;;;1.87;;
5363;SDS011;2705;41.410;2.160;2023-05-10T05:52:39;3.53;;;1.90;;
5363;SDS011;2705;41.410;2.160;2023-05-10T05:55:08;2.30;;;1.70;;
5363;SDS011;2705;41.410;2.160;2023-05-10T05:57:38;3.37;;;1.60;;
5363;SDS011;2705;41.410;2.160;2023-05-10T06:00:08;3.00;;;1.80;;
5363;SDS011;2705;41.410;2.160;2023-05-10T06:02:41;8.93;;;2.20;;
5363;SDS011;2705;41.410;2.160;2023-05-10T06:05:11;5.30;;;2.23;;
5363;SDS011;2705;41.410;2.160;2023-05-10T06:07:41;9.30;;;3.17;;
5363;SDS011;2705;41.410;2.160;2023-05-10T06:10:10;3.93;;;1.80;;
5363;SDS011;2705;41.410;2.160;2023-05-10T06:12:39;7.60;;;2.67;;
5363;SDS011;2705;41.410;2.160;2023-05-10T06:15:09;4.70;;;1.70;;
5363;SDS011;2705;41.410;2.160;2023-05-10T06:17:38;6.67;;;2.00;;
5363;SDS011;2705;41.410;2.160;2023-05-10T06:20:10;3.57;;;1.70;;
5363;SDS011;2705;41.410;2.160;2023-05-10T06:22:40;3.50;;;2.20;;
5363;SDS011;2705;41.410;2.160;2023-05-10T06:25:10;2.57;;;1.70;;
5363;SDS011;2705;41.410;2.160;2023-05-10T06:27:39;6.00;;;2.07;;
5363;SDS011;2705;41.410;2.160;2023-05-10T06:30:09;4.33;;;1.80;;
5363;SDS011;2705;41.410;2.160;2023-05-10T06:32:40;5.27;;;2.00;;
5363;SDS011;2705;41.410;2.160;2023-05-10T06:35:12;12.97;;;2.10;;
5363;SDS011;2705;41.410;2.160;2023-05-10T06:37:41;8.03;;;1.83;;
5363;SDS011;2705;41.410;2.160;2023-05-10T06:40:11;4.57;;;2.30;;
5363;SDS011;2705;41.410;2.160;2023-05-10T06:42:40;5.13;;;2.10;;
5363;SDS011;2705;41.410;2.160;2023-05-10T06:45:09;5.57;;;2.00;;
5363;SDS011;2705;41.410;2.160;2023-05-10T06:47:39;4.57;;;2.00;;
5363;SDS011;2705;41.410;2.160;2023-05-10T06:50:08;7.93;;;2.27;;
5363;SDS011;2705;41.410;2.160;2023-05-10T06:52:39;8.60;;;2.10;;
5363;SDS011;2705;41.410;2.160;2023-05-10T06:55:10;3.53;;;1.83;;
5363;SDS011;2705;41.410;2.160;2023-05-10T06:57:39;5.30;;;2.23;;
5363;SDS011;2705;41.410;2.160;2023-05-10T07:00:08;6.80;;;1.90;;
5363;SDS011;2705;41.410;2.160;2023-05-10T07:02:38;12.83;;;3.57;;
5363;SDS011;2705;41.410;2.160;2023-05-10T07:05:07;3.97;;;2.20;;
5363;SDS011;2705;41.410;2.160;2023-05-10T07:07:36;4.30;;;2.63;;
5363;SDS011;2705;41.410;2.160;2023-05-10T07:10:08;8.53;;;3.70;;
5363;SDS011;2705;41.410;2.160;2023-05-10T07:12:37;5.80;;;2.10;;
5363;SDS011;2705;41.410;2.160;2023-05-10T07:15:07;6.50;;;2.50;;
5363;SDS011;2705;41.410;2.160;2023-05-10T07:17:37;9.00;;;3.43;;
5363;SDS011;2705;41.410;2.160;2023-05-10T07:20:09;3.33;;;1.67;;
5363;SDS011;2705;41.410;2.160;2023-05-10T07:22:38;8.20;;;1.80;;
5363;SDS011;2705;41.410;2.160;2023-05-10T07:25:09;4.67;;;1.93;;
5363;SDS011;2705;41.410;2.160;2023-05-10T07:27:38;8.77;;;1.90;;
5363;SDS011;2705;41.410;2.160;2023-05-10T07:30:08;5.63;;;2.23;;
5363;SDS011;2705;41.410;2.160;2023-05-10T07:32:38;5.80;;;2.27;;
5363;SDS011;2705;41.410;2.160;2023-05-10T07:35:09;9.90;;;2.60;;
5363;SDS011;2705;41.410;2.160;2023-05-10T07:37:37;6.67;;;2.40;;
5363;SDS011;2705;41.410;2.160;2023-05-10T07:40:07;4.47;;;2.10;;
5363;SDS011;2705;41.410;2.160;2023-05-10T07:42:38;11.23;;;2.00;;
5363;SDS011;2705;41.410;2.160;2023-05-10T07:45:07;7.67;;;2.37;;
5363;SDS011;2705;41.410;2.160;2023-05-10T07:47:37;7.20;;;2.23;;
5363;SDS011;2705;41.410;2.160;2023-05-10T07:50:07;7.47;;;2.70;;
5363;SDS011;2705;41.410;2.160;2023-05-10T07:52:36;4.80;;;2.30;;
5363;SDS011;2705;41.410;2.160;2023-05-10T07:55:06;6.33;;;2.13;;
5363;SDS011;2705;41.410;2.160;2023-05-10T07:57:37;2.23;;;1.67;;
5363;SDS011;2705;41.410;2.160;2023-05-10T08:00:07;4.90;;;2.67;;
5363;SDS011;2705;41.410;2.160;2023-05-10T08:02:40;12.20;;;2.17;;
5363;SDS011;2705;41.410;2.160;2023-05-10T08:05:09;10.93;;;2.97;;
5363;SDS011;2705;41.410;2.160;2023-05-10T08:07:38;3.30;;;2.40;;
5363;SDS011;2705;41.410;2.160;2023-05-10T08:10:08;8.13;;;2.30;;
5363;SDS011;2705;41.410;2.160;2023-05-10T08:12:40;9.10;;;3.13;;
5363;SDS011;2705;41.410;2.160;2023-05-10T08:15:10;4.33;;;2.13;;
5363;SDS011;2705;41.410;2.160;2023-05-10T08:17:39;12.43;;;2.27;;
5363;SDS011;2705;41.410;2.160;2023-05-10T08:20:10;8.30;;;2.93;;
5363;SDS011;2705;41.410;2.160;2023-05-10T08:22:44;7.23;;;2.27;;
5363;SDS011;2705;41.410;2.160;2023-05-10T08:25:16;6.63;;;2.20;;
5363;SDS011;2705;41.410;2.160;2023-05-10T08:27:47;6.20;;;2.70;;
5363;SDS011;2705;41.410;2.160;2023-05-10T08:30:16;6.93;;;3.43;;
5363;SDS011;2705;41.410;2.160;2023-05-10T08:32:44;4.83;;;2.40;;
5363;SDS011;2705;41.410;2.160;2023-05-10T08:35:15;8.40;;;2.10;;
5363;SDS011;2705;41.410;2.160;2023-05-10T08:37:44;5.10;;;3.10;;
5363;SDS011;2705;41.410;2.160;2023-05-10T08:40:13;6.10;;;2.50;;
5363;SDS011;2705;41.410;2.160;2023-05-10T08:42:45;5.80;;;1.90;;
5363;SDS011;2705;41.410;2.160;2023-05-10T08:45:19;8.37;;;2.17;;
5363;SDS011;2705;41.410;2.160;2023-05-10T08:47:50;8.37;;;2.83;;
5363;SDS011;2705;41.410;2.160;2023-05-10T08:50:21;3.80;;;2.33;;
5363;SDS011;2705;41.410;2.160;2023-05-10T08:52:50;5.33;;;2.47;;
5363;SDS011;2705;41.410;2.160;2023-05-10T08:55:22;5.53;;;2.27;;
5363;SDS011;2705;41.410;2.160;2023-05-10T08:57:53;15.63;;;2.80;;
5363;SDS011;2705;41.410;2.160;2023-05-10T09:00:22;4.43;;;2.30;;
5363;SDS011;2705;41.410;2.160;2023-05-10T09:02:51;16.60;;;2.70;;
5363;SDS011;2705;41.410;2.160;2023-05-10T09:05:21;6.83;;;2.57;;
5363;SDS011;2705;41.410;2.160;2023-05-10T09:07:51;4.23;;;2.43;;
5363;SDS011;2705;41.410;2.160;2023-05-10T09:10:20;4.40;;;2.50;;
5363;SDS011;2705;41.410;2.160;2023-05-10T09:12:49;4.73;;;2.53;;
5363;SDS011;2705;41.410;2.160;2023-05-10T09:15:20;10.03;;;3.17;;
5363;SDS011;2705;41.410;2.160;2023-05-10T09:17:49;6.13;;;2.50;;
5363;SDS011;2705;41.410;2.160;2023-05-10T09:20:18;10.87;;;3.47;;
5363;SDS011;2705;41.410;2.160;2023-05-10T09:22:48;5.70;;;3.00;;
5363;SDS011;2705;41.410;2.160;2023-05-10T09:25:18;8.33;;;3.73;;
5363;SDS011;2705;41.410;2.160;2023-05-10T09:27:47;4.97;;;3.20;;
5363;SDS011;2705;41.410;2.160;2023-05-10T09:30:22;5.30;;;2.87;;
5363;SDS011;2705;41.410;2.160;2023-05-10T09:32:54;8.93;;;3.30;;
5363;SDS011;2705;41.410;2.160;2023-05-10T09:35:24;15.03;;;3.10;;
5363;SDS011;2705;41.410;2.160;2023-05-10T09:37:56;10.00;;;2.57;;
5363;SDS011;2705;41.410;2.160;2023-05-10T09:40:26;10.70;;;3.50;;
5363;SDS011;2705;41.410;2.160;2023-05-10T09:42:57;15.30;;;3.40;;
5363;SDS011;2705;41.410;2.160;2023-05-10T09:45:29;11.17;;;2.40;;
5363;SDS011;2705;41.410;2.160;2023-05-10T09:48:01;20.50;;;8.27;;
5363;SDS011;2705;41.410;2.160;2023-05-10T09:50:31;9.97;;;3.80;;
5363;SDS011;2705;41.410;2.160;2023-05-10T09:53:01;13.03;;;2.70;;
5363;SDS011;2705;41.410;2.160;2023-05-10T09:55:38;11.40;;;3.20;;
5363;SDS011;2705;41.410;2.160;2023-05-10T09:58:08;15.40;;;3.50;;
5363;SDS011;2705;41.410;2.160;2023-05-10T10:00:39;14.90;;;3.23;;
5363;SDS011;2705;41.410;2.160;2023-05-10T10:03:11;12.57;;;3.00;;
5363;SDS011;2705;41.410;2.160;2023-05-10T10:05:42;12.80;;;3.80;;
5363;SDS011;2705;41.410;2.160;2023-05-10T10:08:12;15.97;;;3.50;;
5363;SDS011;2705;41.410;2.160;2023-05-10T10:10:42;8.63;;;3.27;;
5363;SDS011;2705;41.410;2.160;2023-05-10T10:13:13;11.20;;;3.50;;
5363;SDS011;2705;41.410;2.160;2023-05-10T10:15:45;16.03;;;3.77;;
5363;SDS011;2705;41.410;2.160;2023-05-10T10:18:18;16.70;;;3.60;;
5363;SDS011;2705;41.410;2.160;2023-05-10T10:20:51;20.47;;;3.50;;
5363;SDS011;2705;41.410;2.160;2023-05-10T10:23:20;13.43;;;3.30;;
5363;SDS011;2705;41.410;2.160;2023-05-10T10:25:50;22.13;;;3.83;;
5363;SDS011;2705;41.410;2.160;2023-05-10T10:28:24;12.93;;;4.07;;
5363;SDS011;2705;41.410;2.160;2023-05-10T10:31:15;14.73;;;5.20;;
5363;SDS011;2705;41.410;2.160;2023-05-10T10:33:59;17.17;;;3.20;;
5363;SDS011;2705;41.410;2.160;2023-05-10T10:36:31;12.17;;;3.00;;
5363;SDS011;2705;41.410;2.160;2023-05-10T10:39:05;12.40;;;3.33;;
5363;SDS011;2705;41.410;2.160;2023-05-10T10:41:39;14.73;;;3.73;;
5363;SDS011;2705;41.410;2.160;2023-05-10T10:47:07;11.57;;;2.90;;
5363;SDS011;2705;41.410;2.160;2023-05-10T10:50:02;13.57;;;3.50;;
5363;SDS011;2705;41.410;2.160;2023-05-10T10:52:33;13.60;;;3.00;;
5363;SDS011;2705;41.410;2.160;2023-05-10T10:55:04;11.57;;;3.30;;
5363;SDS011;2705;41.410;2.160;2023-05-10T10:57:46;10.57;;;2.70;;
5363;SDS011;2705;41.410;2.160;2023-05-10T11:00:22;12.07;;;2.80;;
5363;SDS011;2705;41.410;2.160;2023-05-10T11:02:56;14.60;;;3.67;;
5363;SDS011;2705;41.410;2.160;2023-05-10T11:08:15;7.10;;;2.33;;
5363;SDS011;2705;41.410;2.160;2023-05-10T11:10:50;9.47;;;2.47;;
5363;SDS011;2705;41.410;2.160;2023-05-10T11:13:32;12.53;;;2.87;;
5363;SDS011;2705;41.410;2.160;2023-05-10T11:16:17;17.97;;;2.87;;
5363;SDS011;2705;41.410;2.160;2023-05-10T11:18:56;9.33;;;2.90;;
5363;SDS011;2705;41.410;2.160;2023-05-10T11:21:28;14.53;;;3.33;;
5363;SDS011;2705;41.410;2.160;2023-05-10T11:23:58;13.97;;;2.87;;
5363;SDS011;2705;41.410;2.160;2023-05-10T11:26:33;15.80;;;3.20;;
5363;SDS011;2705;41.410;2.160;2023-05-10T11:29:04;7.47;;;2.90;;
5363;SDS011;2705;41.410;2.160;2023-05-10T11:31:34;8.53;;;3.37;;
5363;SDS011;2705;41.410;2.160;2023-05-10T11:34:12;6.90;;;2.53;;
5363;SDS011;2705;41.410;2.160;2023-05-10T11:36:51;12.90;;;3.47;;
5363;SDS011;2705;41.410;2.160;2023-05-10T11:39:25;12.30;;;3.70;;
5363;SDS011;2705;41.410;2.160;2023-05-10T11:41:55;8.47;;;3.47;;
5363;SDS011;2705;41.410;2.160;2023-05-10T11:44:28;11.97;;;3.43;;
5363;SDS011;2705;41.410;2.160;2023-05-10T11:46:58;11.00;;;3.00;;
5363;SDS011;2705;41.410;2.160;2023-05-10T11:49:30;10.73;;;3.03;;
5363;SDS011;2705;41.410;2.160;2023-05-10T11:52:08;13.80;;;3.20;;
5363;SDS011;2705;41.410;2.160;2023-05-10T11:54:43;17.83;;;4.63;;
5363;SDS011;2705;41.410;2.160;2023-05-10T11:57:14;16.00;;;5.50;;
5363;SDS011;2705;41.410;2.160;2023-05-10T11:59:43;19.80;;;3.40;;
5363;SDS011;2705;41.410;2.160;2023-05-10T12:02:13;13.90;;;3.13;;
5363;SDS011;2705;41.410;2.160;2023-05-10T12:04:43;9.47;;;3.37;;
5363;SDS011;2705;41.410;2.160;2023-05-10T12:07:13;18.50;;;4.30;;
5363;SDS011;2705;41.410;2.160;2023-05-10T12:09:42;15.53;;;3.23;;
5363;SDS011;2705;41.410;2.160;2023-05-10T12:12:15;18.80;;;3.40;;
5363;SDS011;2705;41.410;2.160;2023-05-10T12:14:47;17.57;;;4.40;;
5363;SDS011;2705;41.410;2.160;2023-05-10T12:17:18;12.27;;;3.73;;
5363;SDS011;2705;41.410;2.160;2023-05-10T12:19:50;13.43;;;3.67;;
5363;SDS011;2705;41.410;2.160;2023-05-10T12:22:20;10.90;;;3.20;;
5363;SDS011;2705;41.410;2.160;2023-05-10T12:24:49;10.97;;;3.17;;
5363;SDS011;2705;41.410;2.160;2023-05-10T12:27:19;11.80;;;3.33;;
5363;SDS011;2705;41.410;2.160;2023-05-10T12:29:58;17.17;;;3.93;;
5363;SDS011;2705;41.410;2.160;2023-05-10T12:32:37;17.57;;;3.97;;
5363;SDS011;2705;41.410;2.160;2023-05-10T12:35:08;16.80;;;5.80;;
5363;SDS011;2705;41.410;2.160;2023-05-10T12:37:37;16.90;;;4.27;;
5363;SDS011;2705;41.410;2.160;2023-05-10T12:40:07;18.80;;;5.00;;
5363;SDS011;2705;41.410;2.160;2023-05-10T12:42:38;11.77;;;3.63;;
5363;SDS011;2705;41.410;2.160;2023-05-10T12:45:08;12.63;;;3.30;;
5363;SDS011;2705;41.410;2.160;2023-05-10T12:47:38;16.53;;;5.60;;
5363;SDS011;2705;41.410;2.160;2023-05-10T12:50:11;10.30;;;3.53;;
5363;SDS011;2705;41.410;2.160;2023-05-10T12:52:40;8.57;;;2.80;;
5363;SDS011;2705;41.410;2.160;2023-05-10T12:55:09;10.90;;;3.67;;
5363;SDS011;2705;41.410;2.160;2023-05-10T12:57:38;14.73;;;3.63;;
5363;SDS011;2705;41.410;2.160;2023-05-10T13:00:09;9.00;;;3.30;;
5363;SDS011;2705;41.410;2.160;2023-05-10T13:02:38;12.70;;;3.43;;
5363;SDS011;2705;41.410;2.160;2023-05-10T13:05:08;15.27;;;3.90;;
5363;SDS011;2705;41.410;2.160;2023-05-10T13:07:39;13.57;;;4.17;;
5363;SDS011;2705;41.410;2.160;2023-05-10T13:10:10;19.40;;;5.60;;
5363;SDS011;2705;41.410;2.160;2023-05-10T13:12:39;15.43;;;3.43;;
5363;SDS011;2705;41.410;2.160;2023-05-10T13:15:08;12.43;;;3.10;;
5363;SDS011;2705;41.410;2.160;2023-05-10T13:17:38;15.87;;;3.83;;
5363;SDS011;2705;41.410;2.160;2023-05-10T13:20:07;9.90;;;2.80;;
5363;SDS011;2705;41.410;2.160;2023-05-10T13:22:38;21.17;;;4.00;;
5363;SDS011;2705;41.410;2.160;2023-05-10T13:25:08;18.87;;;4.10;;
5363;SDS011;2705;41.410;2.160;2023-05-10T13:27:37;13.60;;;3.13;;
5363;SDS011;2705;41.410;2.160;2023-05-10T13:30:07;16.87;;;3.70;;
5363;SDS011;2705;41.410;2.160;2023-05-10T13:32:38;10.20;;;4.03;;
5363;SDS011;2705;41.410;2.160;2023-05-10T13:35:07;14.70;;;3.43;;
5363;SDS011;2705;41.410;2.160;2023-05-10T13:37:36;15.43;;;3.77;;
5363;SDS011;2705;41.410;2.160;2023-05-10T13:40:07;12.40;;;3.10;;
5363;SDS011;2705;41.410;2.160;2023-05-10T13:42:36;23.27;;;4.53;;
5363;SDS011;2705;41.410;2.160;2023-05-10T13:45:06;16.83;;;3.60;;
5363;SDS011;2705;41.410;2.160;2023-05-10T13:47:36;14.43;;;3.70;;
5363;SDS011;2705;41.410;2.160;2023-05-10T13:50:06;7.60;;;2.67;;
5363;SDS011;2705;41.410;2.160;2023-05-10T13:52:35;10.60;;;3.20;;
5363;SDS011;2705;41.410;2.160;2023-05-10T13:55:06;6.63;;;2.20;;
5363;SDS011;2705;41.410;2.160;2023-05-10T13:57:36;19.77;;;3.63;;
5363;SDS011;2705;41.410;2.160;2023-05-10T14:00:05;14.00;;;3.17;;
5363;SDS011;2705;41.410;2.160;2023-05-10T14:02:35;14.07;;;2.80;;
5363;SDS011;2705;41.410;2.160;2023-05-10T14:05:05;14.20;;;3.57;;
5363;SDS011;2705;41.410;2.160;2023-05-10T14:07:34;14.50;;;4.27;;
5363;SDS011;2705;41.410;2.160;2023-05-10T14:10:05;15.73;;;4.30;;
5363;SDS011;2705;41.410;2.160;2023-05-10T14:12:35;11.57;;;2.30;;
5363;SDS011;2705;41.410;2.160;2023-05-10T14:15:04;9.87;;;2.70;;
5363;SDS011;2705;41.410;2.160;2023-05-10T14:17:34;15.43;;;2.93;;
5363;SDS011;2705;41.410;2.160;2023-05-10T14:20:04;13.93;;;3.27;;
5363;SDS011;2705;41.410;2.160;2023-05-10T14:22:34;12.40;;;3.03;;
5363;SDS011;2705;41.410;2.160;2023-05-10T14:25:03;9.43;;;2.73;;
5363;SDS011;2705;41.410;2.160;2023-05-10T14:27:34;14.43;;;4.03;;
5363;SDS011;2705;41.410;2.160;2023-05-10T14:30:04;10.23;;;3.17;;
5363;SDS011;2705;41.410;2.160;2023-05-10T14:32:34;10.50;;;3.27;;
5363;SDS011;2705;41.410;2.160;2023-05-10T14:35:05;17.00;;;3.87;;
5363;SDS011;2705;41.410;2.160;2023-05-10T14:37:38;13.37;;;2.83;;
5363;SDS011;2705;41.410;2.160;2023-05-10T14:40:09;17.10;;;2.60;;
5363;SDS011;2705;41.410;2.160;2023-05-10T14:42:39;12.63;;;2.90;;
5363;SDS011;2705;41.410;2.160;2023-05-10T14:45:08;10.80;;;3.17;;
5363;SDS011;2705;41.410;2.160;2023-05-10T14:47:38;11.60;;;2.97;;
5363;SDS011;2705;41.410;2.160;2023-05-10T14:50:07;14.37;;;3.90;;
5363;SDS011;2705;41.410;2.160;2023-05-10T14:52:44;16.37;;;3.70;;
5363;SDS011;2705;41.410;2.160;2023-05-10T14:55:14;20.93;;;3.90;;
5363;SDS011;2705;41.410;2.160;2023-05-10T14:57:44;21.63;;;3.70;;
5363;SDS011;2705;41.410;2.160;2023-05-10T15:00:14;13.23;;;3.57;;
5363;SDS011;2705;41.410;2.160;2023-05-10T15:02:46;14.60;;;3.90;;
5363;SDS011;2705;41.410;2.160;2023-05-10T15:05:16;12.90;;;3.30;;
5363;SDS011;2705;41.410;2.160;2023-05-10T15:07:45;16.17;;;3.63;;
5363;SDS011;2705;41.410;2.160;2023-05-10T15:10:16;18.67;;;4.00;;
5363;SDS011;2705;41.410;2.160;2023-05-10T15:12:46;11.37;;;3.13;;
5363;SDS011;2705;41.410;2.160;2023-05-10T15:15:15;13.23;;;3.50;;
5363;SDS011;2705;41.410;2.160;2023-05-10T15:17:44;12.07;;;3.30;;
5363;SDS011;2705;41.410;2.160;2023-05-10T15:20:13;10.43;;;3.80;;
5363;SDS011;2705;41.410;2.160;2023-05-10T15:22:43;20.67;;;4.20;;
5363;SDS011;2705;41.410;2.160;2023-05-10T15:25:12;16.33;;;4.43;;
5363;SDS011;2705;41.410;2.160;2023-05-10T15:27:44;19.40;;;3.73;;
5363;SDS011;2705;41.410;2.160;2023-05-10T15:30:13;14.87;;;3.40;;
5363;SDS011;2705;41.410;2.160;2023-05-10T15:32:42;15.10;;;3.60;;
5363;SDS011;2705;41.410;2.160;2023-05-10T15:35:11;14.67;;;2.70;;
5363;SDS011;2705;41.410;2.160;2023-05-10T15:37:41;21.67;;;4.13;;
5363;SDS011;2705;41.410;2.160;2023-05-10T15:40:10;19.37;;;3.60;;
5363;SDS011;2705;41.410;2.160;2023-05-10T15:42:40;15.17;;;3.70;;